sensor_id;sensor_type;location;lat;lon;timestamp;P1;durP1;ratioP1;P2;durP2;ratioP2
13743;SDS011;6943;52.368;9.966;2023-08-30T00:00:01;4.47;;;4.07;;
13743;SDS011;6943;52.368;9.966;2023-08-30T00:02:26;5.37;;;3.77;;
13743;SDS011;6943;52.368;9.966;2023-08-30T00:04:52;4.53;;;3.40;;
13743;SDS011;6943;52.368;9.966;2023-08-30T00:07:22;3.90;;;3.50;;
13743;SDS011;6943;52.368;9.966;2023-08-30T00:09:48;6.10;;;4.00;;
13743;SDS011;6943;52.368;9.966;2023-08-30T00:12:13;4.23;;;3.83;;
13743;SDS011;6943;52.368;9.966;2023-08-30T00:14:39;5.07;;;3.60;;
13743;SDS011;6943;52.368;9.966;2023-08-30T00:17:04;4.23;;;3.43;;
13743;SDS011;6943;52.368;9.966;2023-08-30T00:19:30;3.67;;;3.23;;
13743;SDS011;6943;52.368;9.966;2023-08-30T00:21:56;4.17;;;3.70;;
13743;SDS011;6943;52.368;9.966;2023-08-30T00:24:22;4.13;;;3.27;;
13743;SDS011;6943;52.368;9.966;2023-08-30T00:26:47;5.80;;;3.67;;
13743;SDS011;6943;52.368;9.966;2023-08-30T00:29:13;3.57;;;3.07;;
13743;SDS011;6943;52.368;9.966;2023-08-30T00:31:38;3.57;;;3.27;;
13743;SDS011;6943;52.368;9.966;2023-08-30T00:34:04;5.33;;;3.40;;
13743;SDS011;6943;52.368;9.966;2023-08-30T00:36:29;8.63;;;3.10;;
13743;SDS011;6943;52.368;9.966;2023-08-30T00:38:55;3.37;;;2.93;;
13743;SDS011;6943;52.368;9.966;2023-08-30T00:41:21;3.73;;;3.43;;
13743;SDS011;6943;52.368;9.966;2023-08-30T00:43:46;3.83;;;3.53;;
13743;SDS011;6943;52.368;9.966;2023-08-30T00:46:12;3.90;;;3.43;;
13743;SDS011;6943;52.368;9.966;2023-08-30T00:48:38;4.27;;;3.30;;
13743;SDS011;6943;52.368;9.966;2023-08-30T00:51:05;4.13;;;3.73;;
13743;SDS011;6943;52.368;9.966;2023-08-30T00:53:31;4.00;;;3.60;;
13743;SDS011;6943;52.368;9.966;2023-08-30T00:55:57;5.83;;;3.40;;
13743;SDS011;6943;52.368;9.966;2023-08-30T00:58:23;3.40;;;3.10;;
13743;SDS011;6943;52.368;9.966;2023-08-30T01:03:17;3.53;;;3.17;;
13743;SDS011;6943;52.368;9.966;2023-08-30T01:05:42;3.83;;;3.40;;
13743;SDS011;6943;52.368;9.966;2023-08-30T01:08:08;4.27;;;3.50;;
13743;SDS011;6943;52.368;9.966;2023-08-30T01:13:06;4.33;;;3.67;;
13743;SDS011;6943;52.368;9.966;2023-08-30T01:15:34;4.10;;;3.80;;
13743;SDS011;6943;52.368;9.966;2023-08-30T01:18:02;4.37;;;4.00;;
13743;SDS011;6943;52.368;9.966;2023-08-30T01:20:30;4.33;;;3.93;;
13743;SDS011;6943;52.368;9.966;2023-08-30T01:28:34;4.23;;;3.47;;
13743;SDS011;6943;52.368;9.966;2023-08-30T01:31:02;4.40;;;3.70;;
13743;SDS011;6943;52.368;9.966;2023-08-30T01:33:30;4.03;;;3.63;;
13743;SDS011;6943;52.368;9.966;2023-08-30T01:35:57;4.50;;;3.70;;
13743;SDS011;6943;52.368;9.966;2023-08-30T01:38:24;6.33;;;4.10;;
13743;SDS011;6943;52.368;9.966;2023-08-30T01:40:51;4.30;;;3.90;;
13743;SDS011;6943;52.368;9.966;2023-08-30T01:43:19;3.97;;;3.60;;
13743;SDS011;6943;52.368;9.966;2023-08-30T01:45:46;6.30;;;4.53;;
13743;SDS011;6943;52.368;9.966;2023-08-30T01:48:13;4.10;;;3.80;;
13743;SDS011;6943;52.368;9.966;2023-08-30T01:50:41;6.30;;;4.07;;
13743;SDS011;6943;52.368;9.966;2023-08-30T01:53:08;3.50;;;3.20;;
13743;SDS011;6943;52.368;9.966;2023-08-30T01:55:36;3.57;;;3.10;;
13743;SDS011;6943;52.368;9.966;2023-08-30T01:58:02;4.10;;;3.80;;
13743;SDS011;6943;52.368;9.966;2023-08-30T02:00:28;4.00;;;3.63;;
13743;SDS011;6943;52.368;9.966;2023-08-30T02:02:54;4.60;;;3.93;;
13743;SDS011;6943;52.368;9.966;2023-08-30T02:05:20;4.23;;;3.83;;
13743;SDS011;6943;52.368;9.966;2023-08-30T02:07:50;5.00;;;4.47;;
13743;SDS011;6943;52.368;9.966;2023-08-30T02:10:17;5.07;;;4.50;;
13743;SDS011;6943;52.368;9.966;2023-08-30T02:12:49;5.50;;;4.77;;
13743;SDS011;6943;52.368;9.966;2023-08-30T02:15:19;4.30;;;4.03;;
13743;SDS011;6943;52.368;9.966;2023-08-30T02:17:46;4.87;;;4.10;;
13743;SDS011;6943;52.368;9.966;2023-08-30T02:20:13;4.37;;;4.00;;
13743;SDS011;6943;52.368;9.966;2023-08-30T02:22:39;4.77;;;4.40;;
13743;SDS011;6943;52.368;9.966;2023-08-30T02:25:05;4.80;;;4.37;;
13743;SDS011;6943;52.368;9.966;2023-08-30T02:27:31;5.10;;;4.60;;
13743;SDS011;6943;52.368;9.966;2023-08-30T02:29:57;4.77;;;4.30;;
13743;SDS011;6943;52.368;9.966;2023-08-30T02:32:23;5.00;;;4.50;;
13743;SDS011;6943;52.368;9.966;2023-08-30T02:34:49;5.93;;;4.20;;
13743;SDS011;6943;52.368;9.966;2023-08-30T02:37:16;6.43;;;4.60;;
13743;SDS011;6943;52.368;9.966;2023-08-30T02:39:42;5.60;;;4.50;;
13743;SDS011;6943;52.368;9.966;2023-08-30T02:42:07;5.37;;;4.20;;
13743;SDS011;6943;52.368;9.966;2023-08-30T02:44:33;5.17;;;4.60;;
13743;SDS011;6943;52.368;9.966;2023-08-30T02:46:58;5.23;;;4.70;;
13743;SDS011;6943;52.368;9.966;2023-08-30T02:49:24;4.97;;;4.57;;
13743;SDS011;6943;52.368;9.966;2023-08-30T02:51:50;6.47;;;4.53;;
13743;SDS011;6943;52.368;9.966;2023-08-30T02:54:15;5.30;;;4.80;;
13743;SDS011;6943;52.368;9.966;2023-08-30T02:56:41;4.77;;;4.40;;
13743;SDS011;6943;52.368;9.966;2023-08-30T02:59:08;5.47;;;4.97;;
13743;SDS011;6943;52.368;9.966;2023-08-30T03:01:34;5.97;;;4.60;;
13743;SDS011;6943;52.368;9.966;2023-08-30T03:04:00;4.90;;;4.17;;
13743;SDS011;6943;52.368;9.966;2023-08-30T03:06:26;5.13;;;4.63;;
13743;SDS011;6943;52.368;9.966;2023-08-30T03:08:53;5.93;;;4.87;;
13743;SDS011;6943;52.368;9.966;2023-08-30T03:11:18;5.13;;;4.73;;
13743;SDS011;6943;52.368;9.966;2023-08-30T03:13:44;5.23;;;4.70;;
13743;SDS011;6943;52.368;9.966;2023-08-30T03:16:13;6.83;;;5.20;;
13743;SDS011;6943;52.368;9.966;2023-08-30T03:18:40;5.53;;;5.03;;
13743;SDS011;6943;52.368;9.966;2023-08-30T03:21:06;7.73;;;5.20;;
13743;SDS011;6943;52.368;9.966;2023-08-30T03:23:32;5.77;;;5.10;;
13743;SDS011;6943;52.368;9.966;2023-08-30T03:25:59;6.07;;;5.47;;
13743;SDS011;6943;52.368;9.966;2023-08-30T03:28:25;6.30;;;5.70;;
13743;SDS011;6943;52.368;9.966;2023-08-30T03:30:52;6.20;;;5.60;;
13743;SDS011;6943;52.368;9.966;2023-08-30T03:33:17;6.07;;;5.57;;
13743;SDS011;6943;52.368;9.966;2023-08-30T03:35:43;6.57;;;5.97;;
13743;SDS011;6943;52.368;9.966;2023-08-30T03:38:08;5.67;;;5.17;;
13743;SDS011;6943;52.368;9.966;2023-08-30T03:40:34;6.93;;;5.20;;
13743;SDS011;6943;52.368;9.966;2023-08-30T03:43:00;6.37;;;5.37;;
13743;SDS011;6943;52.368;9.966;2023-08-30T03:45:25;6.33;;;5.70;;
13743;SDS011;6943;52.368;9.966;2023-08-30T03:47:51;5.87;;;5.37;;
13743;SDS011;6943;52.368;9.966;2023-08-30T03:50:17;9.10;;;6.67;;
13743;SDS011;6943;52.368;9.966;2023-08-30T03:52:42;6.40;;;5.80;;
13743;SDS011;6943;52.368;9.966;2023-08-30T03:55:08;6.97;;;5.97;;
13743;SDS011;6943;52.368;9.966;2023-08-30T03:57:33;7.50;;;6.50;;
13743;SDS011;6943;52.368;9.966;2023-08-30T03:59:59;6.37;;;5.67;;
13743;SDS011;6943;52.368;9.966;2023-08-30T04:02:25;6.97;;;6.27;;
13743;SDS011;6943;52.368;9.966;2023-08-30T04:04:50;7.40;;;6.67;;
13743;SDS011;6943;52.368;9.966;2023-08-30T04:07:16;6.90;;;6.30;;
13743;SDS011;6943;52.368;9.966;2023-08-30T04:09:41;6.63;;;6.00;;
13743;SDS011;6943;52.368;9.966;2023-08-30T04:12:07;7.80;;;6.47;;
13743;SDS011;6943;52.368;9.966;2023-08-30T04:14:32;7.83;;;6.50;;
13743;SDS011;6943;52.368;9.966;2023-08-30T04:16:58;7.37;;;6.60;;
13743;SDS011;6943;52.368;9.966;2023-08-30T04:19:23;7.93;;;7.23;;
13743;SDS011;6943;52.368;9.966;2023-08-30T04:21:49;8.00;;;7.30;;
13743;SDS011;6943;52.368;9.966;2023-08-30T04:24:15;7.27;;;6.77;;
13743;SDS011;6943;52.368;9.966;2023-08-30T04:26:41;8.00;;;7.30;;
13743;SDS011;6943;52.368;9.966;2023-08-30T04:29:06;8.30;;;7.43;;
13743;SDS011;6943;52.368;9.966;2023-08-30T04:31:32;7.50;;;6.80;;
13743;SDS011;6943;52.368;9.966;2023-08-30T04:33:57;8.83;;;7.27;;
13743;SDS011;6943;52.368;9.966;2023-08-30T04:36:23;8.53;;;7.73;;
13743;SDS011;6943;52.368;9.966;2023-08-30T04:38:48;8.33;;;7.53;;
13743;SDS011;6943;52.368;9.966;2023-08-30T04:41:14;9.93;;;7.33;;
13743;SDS011;6943;52.368;9.966;2023-08-30T04:43:39;9.13;;;7.70;;
13743;SDS011;6943;52.368;9.966;2023-08-30T04:46:05;8.40;;;7.43;;
13743;SDS011;6943;52.368;9.966;2023-08-30T04:48:31;7.13;;;6.50;;
13743;SDS011;6943;52.368;9.966;2023-08-30T04:51:03;9.33;;;6.70;;
13743;SDS011;6943;52.368;9.966;2023-08-30T04:53:29;8.60;;;6.33;;
13743;SDS011;6943;52.368;9.966;2023-08-30T04:55:55;7.10;;;6.33;;
13743;SDS011;6943;52.368;9.966;2023-08-30T04:58:20;7.13;;;6.17;;
13743;SDS011;6943;52.368;9.966;2023-08-30T05:00:46;6.90;;;5.50;;
13743;SDS011;6943;52.368;9.966;2023-08-30T05:03:12;7.00;;;6.33;;
13743;SDS011;6943;52.368;9.966;2023-08-30T05:05:37;6.13;;;5.53;;
13743;SDS011;6943;52.368;9.966;2023-08-30T05:08:03;5.50;;;5.00;;
13743;SDS011;6943;52.368;9.966;2023-08-30T05:10:29;6.37;;;5.03;;
13743;SDS011;6943;52.368;9.966;2023-08-30T05:12:54;5.20;;;4.73;;
13743;SDS011;6943;52.368;9.966;2023-08-30T05:15:20;4.90;;;3.97;;
13743;SDS011;6943;52.368;9.966;2023-08-30T05:17:46;4.30;;;3.90;;
13743;SDS011;6943;52.368;9.966;2023-08-30T05:20:11;4.13;;;3.73;;
13743;SDS011;6943;52.368;9.966;2023-08-30T05:22:37;4.93;;;4.03;;
13743;SDS011;6943;52.368;9.966;2023-08-30T05:25:03;5.20;;;3.47;;
13743;SDS011;6943;52.368;9.966;2023-08-30T05:27:29;4.50;;;3.73;;
13743;SDS011;6943;52.368;9.966;2023-08-30T05:29:54;6.10;;;4.03;;
13743;SDS011;6943;52.368;9.966;2023-08-30T05:32:21;5.70;;;4.13;;
13743;SDS011;6943;52.368;9.966;2023-08-30T05:34:46;5.10;;;4.50;;
13743;SDS011;6943;52.368;9.966;2023-08-30T05:37:12;4.93;;;4.30;;
13743;SDS011;6943;52.368;9.966;2023-08-30T05:39:38;5.57;;;4.60;;
13743;SDS011;6943;52.368;9.966;2023-08-30T05:42:03;6.40;;;5.10;;
13743;SDS011;6943;52.368;9.966;2023-08-30T05:44:29;5.33;;;4.50;;
13743;SDS011;6943;52.368;9.966;2023-08-30T05:46:55;5.27;;;4.40;;
13743;SDS011;6943;52.368;9.966;2023-08-30T05:49:20;5.97;;;4.10;;
13743;SDS011;6943;52.368;9.966;2023-08-30T05:51:46;9.53;;;4.20;;
13743;SDS011;6943;52.368;9.966;2023-08-30T05:54:12;4.83;;;3.70;;
13743;SDS011;6943;52.368;9.966;2023-08-30T05:56:38;3.80;;;3.50;;
13743;SDS011;6943;52.368;9.966;2023-08-30T05:59:03;6.60;;;3.90;;
13743;SDS011;6943;52.368;9.966;2023-08-30T06:01:29;5.40;;;4.03;;
13743;SDS011;6943;52.368;9.966;2023-08-30T06:03:54;6.73;;;4.23;;
13743;SDS011;6943;52.368;9.966;2023-08-30T06:06:20;4.60;;;4.20;;
13743;SDS011;6943;52.368;9.966;2023-08-30T06:08:46;5.60;;;3.87;;
13743;SDS011;6943;52.368;9.966;2023-08-30T06:11:11;6.00;;;3.90;;
13743;SDS011;6943;52.368;9.966;2023-08-30T06:13:37;5.03;;;4.03;;
13743;SDS011;6943;52.368;9.966;2023-08-30T06:16:03;4.43;;;3.93;;
13743;SDS011;6943;52.368;9.966;2023-08-30T06:18:29;4.43;;;3.90;;
13743;SDS011;6943;52.368;9.966;2023-08-30T06:20:56;5.40;;;3.73;;
13743;SDS011;6943;52.368;9.966;2023-08-30T06:23:22;4.03;;;3.20;;
13743;SDS011;6943;52.368;9.966;2023-08-30T06:25:54;5.68;;;3.85;;
13743;SDS011;6943;52.368;9.966;2023-08-30T06:28:20;4.88;;;3.30;;
13743;SDS011;6943;52.368;9.966;2023-08-30T06:30:46;3.40;;;3.10;;
13743;SDS011;6943;52.368;9.966;2023-08-30T06:33:11;3.35;;;3.03;;
13743;SDS011;6943;52.368;9.966;2023-08-30T06:35:37;3.42;;;3.13;;
13743;SDS011;6943;52.368;9.966;2023-08-30T06:38:04;4.03;;;3.20;;
13743;SDS011;6943;52.368;9.966;2023-08-30T06:40:30;3.85;;;3.17;;
13743;SDS011;6943;52.368;9.966;2023-08-30T06:42:55;5.78;;;3.72;;
13743;SDS011;6943;52.368;9.966;2023-08-30T06:45:22;3.83;;;3.40;;
13743;SDS011;6943;52.368;9.966;2023-08-30T06:47:48;3.30;;;2.95;;
13743;SDS011;6943;52.368;9.966;2023-08-30T06:50:14;3.97;;;3.50;;
13743;SDS011;6943;52.368;9.966;2023-08-30T06:52:40;3.85;;;3.45;;
13743;SDS011;6943;52.368;9.966;2023-08-30T06:55:05;3.83;;;3.33;;
13743;SDS011;6943;52.368;9.966;2023-08-30T06:57:31;3.78;;;3.30;;
13743;SDS011;6943;52.368;9.966;2023-08-30T06:59:57;4.60;;;3.53;;
13743;SDS011;6943;52.368;9.966;2023-08-30T07:02:24;3.72;;;3.42;;
13743;SDS011;6943;52.368;9.966;2023-08-30T07:04:50;4.53;;;3.20;;
13743;SDS011;6943;52.368;9.966;2023-08-30T07:07:16;5.90;;;3.78;;
13743;SDS011;6943;52.368;9.966;2023-08-30T07:09:41;3.78;;;3.35;;
13743;SDS011;6943;52.368;9.966;2023-08-30T07:12:07;4.25;;;3.95;;
13743;SDS011;6943;52.368;9.966;2023-08-30T07:14:32;6.55;;;4.30;;
13743;SDS011;6943;52.368;9.966;2023-08-30T07:16:58;5.70;;;4.10;;
13743;SDS011;6943;52.368;9.966;2023-08-30T07:19:24;6.97;;;4.50;;
13743;SDS011;6943;52.368;9.966;2023-08-30T07:21:50;5.60;;;4.17;;
13743;SDS011;6943;52.368;9.966;2023-08-30T07:24:16;4.60;;;4.20;;
13743;SDS011;6943;52.368;9.966;2023-08-30T07:26:41;6.63;;;4.30;;
13743;SDS011;6943;52.368;9.966;2023-08-30T07:29:08;5.30;;;4.80;;
13743;SDS011;6943;52.368;9.966;2023-08-30T07:31:34;6.40;;;4.53;;
13743;SDS011;6943;52.368;9.966;2023-08-30T07:33:59;4.87;;;4.37;;
13743;SDS011;6943;52.368;9.966;2023-08-30T07:36:29;6.00;;;4.70;;
13743;SDS011;6943;52.368;9.966;2023-08-30T07:38:55;6.63;;;5.07;;
13743;SDS011;6943;52.368;9.966;2023-08-30T07:41:20;5.27;;;4.77;;
13743;SDS011;6943;52.368;9.966;2023-08-30T07:43:46;8.70;;;4.80;;
13743;SDS011;6943;52.368;9.966;2023-08-30T07:46:11;4.90;;;4.50;;
13743;SDS011;6943;52.368;9.966;2023-08-30T07:48:37;5.82;;;4.50;;
13743;SDS011;6943;52.368;9.966;2023-08-30T07:51:02;6.47;;;4.95;;
13743;SDS011;6943;52.368;9.966;2023-08-30T07:53:28;5.07;;;4.60;;
13743;SDS011;6943;52.368;9.966;2023-08-30T07:55:53;5.40;;;4.50;;
13743;SDS011;6943;52.368;9.966;2023-08-30T07:58:19;5.57;;;5.00;;
13743;SDS011;6943;52.368;9.966;2023-08-30T08:00:44;5.75;;;5.20;;
13743;SDS011;6943;52.368;9.966;2023-08-30T08:03:10;5.22;;;4.72;;
13743;SDS011;6943;52.368;9.966;2023-08-30T08:05:35;4.95;;;4.50;;
13743;SDS011;6943;52.368;9.966;2023-08-30T08:08:02;7.95;;;5.45;;
13743;SDS011;6943;52.368;9.966;2023-08-30T08:10:31;5.82;;;4.90;;
13743;SDS011;6943;52.368;9.966;2023-08-30T08:12:58;5.38;;;4.88;;
13743;SDS011;6943;52.368;9.966;2023-08-30T08:15:23;6.20;;;5.43;;
13743;SDS011;6943;52.368;9.966;2023-08-30T08:17:49;5.78;;;5.07;;
13743;SDS011;6943;52.368;9.966;2023-08-30T08:20:15;6.35;;;5.28;;
13743;SDS011;6943;52.368;9.966;2023-08-30T08:22:40;6.30;;;5.80;;
13743;SDS011;6943;52.368;9.966;2023-08-30T08:25:06;8.57;;;6.03;;
13743;SDS011;6943;52.368;9.966;2023-08-30T08:27:34;6.57;;;5.97;;
13743;SDS011;6943;52.368;9.966;2023-08-30T08:30:01;6.68;;;5.97;;
13743;SDS011;6943;52.368;9.966;2023-08-30T08:32:28;7.35;;;6.47;;
13743;SDS011;6943;52.368;9.966;2023-08-30T08:34:55;5.65;;;5.13;;
13743;SDS011;6943;52.368;9.966;2023-08-30T08:37:21;6.47;;;5.68;;
13743;SDS011;6943;52.368;9.966;2023-08-30T08:39:47;6.75;;;6.15;;
13743;SDS011;6943;52.368;9.966;2023-08-30T08:42:16;6.78;;;6.05;;
13743;SDS011;6943;52.368;9.966;2023-08-30T08:44:43;7.07;;;6.38;;
13743;SDS011;6943;52.368;9.966;2023-08-30T08:47:11;6.72;;;6.20;;
13743;SDS011;6943;52.368;9.966;2023-08-30T08:49:36;8.48;;;7.10;;
13743;SDS011;6943;52.368;9.966;2023-08-30T08:52:02;7.35;;;6.50;;
13743;SDS011;6943;52.368;9.966;2023-08-30T08:54:29;8.68;;;7.38;;
13743;SDS011;6943;52.368;9.966;2023-08-30T08:56:55;7.50;;;6.75;;
13743;SDS011;6943;52.368;9.966;2023-08-30T08:59:21;7.63;;;6.75;;
13743;SDS011;6943;52.368;9.966;2023-08-30T09:01:47;8.35;;;7.55;;
13743;SDS011;6943;52.368;9.966;2023-08-30T09:04:13;9.15;;;8.13;;
13743;SDS011;6943;52.368;9.966;2023-08-30T09:06:38;8.88;;;8.00;;
13743;SDS011;6943;52.368;9.966;2023-08-30T09:09:08;8.00;;;7.30;;
13743;SDS011;6943;52.368;9.966;2023-08-30T09:11:34;8.57;;;7.30;;
13743;SDS011;6943;52.368;9.966;2023-08-30T09:13:59;7.72;;;7.00;;
13743;SDS011;6943;52.368;9.966;2023-08-30T09:16:25;8.20;;;7.40;;
13743;SDS011;6943;52.368;9.966;2023-08-30T09:19:00;8.07;;;7.28;;
13743;SDS011;6943;52.368;9.966;2023-08-30T09:21:26;7.30;;;6.60;;
13743;SDS011;6943;52.368;9.966;2023-08-30T09:23:58;8.25;;;7.28;;
13743;SDS011;6943;52.368;9.966;2023-08-30T09:26:31;9.10;;;8.30;;
13743;SDS011;6943;52.368;9.966;2023-08-30T09:29:04;8.75;;;7.70;;
13743;SDS011;6943;52.368;9.966;2023-08-30T09:31:38;9.73;;;8.75;;
13743;SDS011;6943;52.368;9.966;2023-08-30T09:34:05;11.68;;;10.55;;
13743;SDS011;6943;52.368;9.966;2023-08-30T09:36:35;11.43;;;10.32;;
13743;SDS011;6943;52.368;9.966;2023-08-30T09:39:08;11.88;;;10.60;;
13743;SDS011;6943;52.368;9.966;2023-08-30T09:41:41;12.98;;;11.18;;
13743;SDS011;6943;52.368;9.966;2023-08-30T09:44:18;12.57;;;11.38;;
13743;SDS011;6943;52.368;9.966;2023-08-30T09:46:51;12.35;;;11.15;;
13743;SDS011;6943;52.368;9.966;2023-08-30T09:49:19;12.25;;;11.10;;
13743;SDS011;6943;52.368;9.966;2023-08-30T09:51:49;11.80;;;10.70;;
13743;SDS011;6943;52.368;9.966;2023-08-30T09:56:46;11.80;;;10.70;;
13743;SDS011;6943;52.368;9.966;2023-08-30T09:59:13;14.32;;;10.70;;
13743;SDS011;6943;52.368;9.966;2023-08-30T10:01:40;11.05;;;9.93;;
13743;SDS011;6943;52.368;9.966;2023-08-30T10:04:08;10.77;;;9.68;;
13743;SDS011;6943;52.368;9.966;2023-08-30T10:06:35;11.00;;;10.00;;
13743;SDS011;6943;52.368;9.966;2023-08-30T10:09:04;11.32;;;9.90;;
13743;SDS011;6943;52.368;9.966;2023-08-30T10:11:32;11.13;;;9.02;;
13743;SDS011;6943;52.368;9.966;2023-08-30T10:14:07;9.45;;;8.13;;
13743;SDS011;6943;52.368;9.966;2023-08-30T10:16:43;11.25;;;10.15;;
13743;SDS011;6943;52.368;9.966;2023-08-30T10:19:16;11.80;;;10.27;;
13743;SDS011;6943;52.368;9.966;2023-08-30T10:21:44;11.15;;;9.65;;
13743;SDS011;6943;52.368;9.966;2023-08-30T10:24:14;12.15;;;10.95;;
13743;SDS011;6943;52.368;9.966;2023-08-30T10:26:44;11.43;;;10.43;;
13743;SDS011;6943;52.368;9.966;2023-08-30T10:29:11;11.88;;;10.80;;
13743;SDS011;6943;52.368;9.966;2023-08-30T10:31:40;11.88;;;10.77;;
13743;SDS011;6943;52.368;9.966;2023-08-30T10:34:13;12.27;;;11.07;;
13743;SDS011;6943;52.368;9.966;2023-08-30T10:36:42;11.02;;;10.02;;
13743;SDS011;6943;52.368;9.966;2023-08-30T10:39:12;10.70;;;9.70;;
13743;SDS011;6943;52.368;9.966;2023-08-30T10:41:53;10.93;;;9.93;;
13743;SDS011;6943;52.368;9.966;2023-08-30T10:44:22;9.75;;;8.85;;
13743;SDS011;6943;52.368;9.966;2023-08-30T10:46:51;9.77;;;8.88;;
13743;SDS011;6943;52.368;9.966;2023-08-30T10:49:19;9.25;;;8.35;;
13743;SDS011;6943;52.368;9.966;2023-08-30T10:51:45;8.65;;;7.85;;
13743;SDS011;6943;52.368;9.966;2023-08-30T10:54:19;9.70;;;8.90;;
13743;SDS011;6943;52.368;9.966;2023-08-30T10:56:48;9.60;;;8.80;;
13743;SDS011;6943;52.368;9.966;2023-08-30T10:59:21;9.70;;;8.60;;
13743;SDS011;6943;52.368;9.966;2023-08-30T11:01:48;9.52;;;8.55;;
13743;SDS011;6943;52.368;9.966;2023-08-30T11:04:16;10.10;;;8.73;;
13743;SDS011;6943;52.368;9.966;2023-08-30T11:06:43;9.98;;;9.07;;
13743;SDS011;6943;52.368;9.966;2023-08-30T11:09:10;10.73;;;9.30;;
13743;SDS011;6943;52.368;9.966;2023-08-30T11:11:44;9.15;;;8.35;;
13743;SDS011;6943;52.368;9.966;2023-08-30T11:14:11;10.73;;;9.63;;
13743;SDS011;6943;52.368;9.966;2023-08-30T11:16:37;8.93;;;8.23;;
13743;SDS011;6943;52.368;9.966;2023-08-30T11:19:03;11.15;;;10.02;;
13743;SDS011;6943;52.368;9.966;2023-08-30T11:21:30;10.30;;;9.35;;
13743;SDS011;6943;52.368;9.966;2023-08-30T11:23:57;9.88;;;8.70;;
13743;SDS011;6943;52.368;9.966;2023-08-30T11:26:23;11.13;;;10.05;;
13743;SDS011;6943;52.368;9.966;2023-08-30T11:28:48;10.00;;;9.10;;
13743;SDS011;6943;52.368;9.966;2023-08-30T11:31:23;9.93;;;8.93;;
13743;SDS011;6943;52.368;9.966;2023-08-30T11:33:53;9.85;;;8.95;;
13743;SDS011;6943;52.368;9.966;2023-08-30T11:36:29;9.43;;;8.63;;
13743;SDS011;6943;52.368;9.966;2023-08-30T11:38:56;9.63;;;8.73;;
13743;SDS011;6943;52.368;9.966;2023-08-30T11:41:23;9.30;;;8.45;;
13743;SDS011;6943;52.368;9.966;2023-08-30T11:43:50;10.05;;;7.03;;
13743;SDS011;6943;52.368;9.966;2023-08-30T11:46:16;7.47;;;6.72;;
13743;SDS011;6943;52.368;9.966;2023-08-30T11:48:42;9.35;;;7.70;;
13743;SDS011;6943;52.368;9.966;2023-08-30T11:51:09;8.48;;;7.63;;
13743;SDS011;6943;52.368;9.966;2023-08-30T11:53:35;9.05;;;8.07;;
13743;SDS011;6943;52.368;9.966;2023-08-30T11:56:02;8.10;;;7.30;;
13743;SDS011;6943;52.368;9.966;2023-08-30T11:58:31;8.35;;;6.63;;
13743;SDS011;6943;52.368;9.966;2023-08-30T12:00:58;8.13;;;7.47;;
13743;SDS011;6943;52.368;9.966;2023-08-30T12:03:25;8.75;;;7.57;;
13743;SDS011;6943;52.368;9.966;2023-08-30T12:05:52;6.97;;;6.35;;
13743;SDS011;6943;52.368;9.966;2023-08-30T12:08:22;7.63;;;6.55;;
13743;SDS011;6943;52.368;9.966;2023-08-30T12:10:49;5.95;;;5.35;;
13743;SDS011;6943;52.368;9.966;2023-08-30T12:13:24;8.20;;;6.67;;
13743;SDS011;6943;52.368;9.966;2023-08-30T12:15:53;8.60;;;7.13;;
13743;SDS011;6943;52.368;9.966;2023-08-30T12:18:20;7.83;;;7.13;;
13743;SDS011;6943;52.368;9.966;2023-08-30T12:20:53;7.37;;;6.70;;
13743;SDS011;6943;52.368;9.966;2023-08-30T12:23:22;8.33;;;7.53;;
13743;SDS011;6943;52.368;9.966;2023-08-30T12:26:08;7.77;;;6.90;;
13743;SDS011;6943;52.368;9.966;2023-08-30T12:28:36;7.23;;;6.47;;
13743;SDS011;6943;52.368;9.966;2023-08-30T12:31:03;7.70;;;6.97;;
13743;SDS011;6943;52.368;9.966;2023-08-30T12:33:29;9.10;;;7.57;;
13743;SDS011;6943;52.368;9.966;2023-08-30T12:35:55;9.57;;;7.70;;
13743;SDS011;6943;52.368;9.966;2023-08-30T12:38:21;8.17;;;7.43;;
13743;SDS011;6943;52.368;9.966;2023-08-30T12:40:48;8.73;;;7.80;;
13743;SDS011;6943;52.368;9.966;2023-08-30T12:43:14;7.50;;;6.70;;
13743;SDS011;6943;52.368;9.966;2023-08-30T12:45:41;8.30;;;7.50;;
13743;SDS011;6943;52.368;9.966;2023-08-30T12:48:08;6.47;;;5.87;;
13743;SDS011;6943;52.368;9.966;2023-08-30T12:50:37;5.97;;;5.47;;
13743;SDS011;6943;52.368;9.966;2023-08-30T12:53:03;6.43;;;5.83;;
13743;SDS011;6943;52.368;9.966;2023-08-30T12:55:30;5.75;;;5.25;;
13743;SDS011;6943;52.368;9.966;2023-08-30T12:57:55;6.25;;;5.53;;
13743;SDS011;6943;52.368;9.966;2023-08-30T13:00:22;5.93;;;5.30;;
13743;SDS011;6943;52.368;9.966;2023-08-30T13:02:48;6.37;;;5.40;;
13743;SDS011;6943;52.368;9.966;2023-08-30T13:05:13;8.13;;;6.30;;
13743;SDS011;6943;52.368;9.966;2023-08-30T13:07:39;6.50;;;5.87;;
13743;SDS011;6943;52.368;9.966;2023-08-30T13:10:05;6.93;;;6.30;;
13743;SDS011;6943;52.368;9.966;2023-08-30T13:12:31;6.87;;;5.73;;
13743;SDS011;6943;52.368;9.966;2023-08-30T13:14:57;8.07;;;7.07;;
13743;SDS011;6943;52.368;9.966;2023-08-30T13:17:22;7.30;;;6.10;;
13743;SDS011;6943;52.368;9.966;2023-08-30T13:19:48;7.00;;;6.50;;
13743;SDS011;6943;52.368;9.966;2023-08-30T13:22:14;7.20;;;6.47;;
13743;SDS011;6943;52.368;9.966;2023-08-30T13:24:40;8.80;;;7.00;;
13743;SDS011;6943;52.368;9.966;2023-08-30T13:27:05;6.97;;;5.90;;
13743;SDS011;6943;52.368;9.966;2023-08-30T13:29:31;8.07;;;6.67;;
13743;SDS011;6943;52.368;9.966;2023-08-30T13:31:56;9.80;;;8.83;;
13743;SDS011;6943;52.368;9.966;2023-08-30T13:34:22;8.47;;;7.77;;
13743;SDS011;6943;52.368;9.966;2023-08-30T13:36:47;10.17;;;9.17;;
13743;SDS011;6943;52.368;9.966;2023-08-30T13:39:13;12.10;;;10.90;;
13743;SDS011;6943;52.368;9.966;2023-08-30T13:41:39;12.97;;;10.87;;
13743;SDS011;6943;52.368;9.966;2023-08-30T13:44:05;11.43;;;10.30;;
13743;SDS011;6943;52.368;9.966;2023-08-30T13:46:31;9.67;;;8.67;;
13743;SDS011;6943;52.368;9.966;2023-08-30T13:48:57;7.53;;;6.83;;
13743;SDS011;6943;52.368;9.966;2023-08-30T13:51:23;10.70;;;6.03;;
13743;SDS011;6943;52.368;9.966;2023-08-30T13:53:49;9.20;;;5.07;;
13743;SDS011;6943;52.368;9.966;2023-08-30T13:56:15;6.53;;;5.57;;
13743;SDS011;6943;52.368;9.966;2023-08-30T13:58:41;6.23;;;5.63;;
13743;SDS011;6943;52.368;9.966;2023-08-30T14:01:07;6.77;;;5.40;;
13743;SDS011;6943;52.368;9.966;2023-08-30T14:03:32;6.00;;;5.17;;
13743;SDS011;6943;52.368;9.966;2023-08-30T14:05:58;6.83;;;5.53;;
13743;SDS011;6943;52.368;9.966;2023-08-30T14:08:23;5.43;;;4.80;;
13743;SDS011;6943;52.368;9.966;2023-08-30T14:10:49;5.10;;;4.60;;
13743;SDS011;6943;52.368;9.966;2023-08-30T14:13:15;4.43;;;4.03;;
13743;SDS011;6943;52.368;9.966;2023-08-30T14:15:40;4.93;;;4.53;;
13743;SDS011;6943;52.368;9.966;2023-08-30T14:18:07;4.60;;;3.80;;
13743;SDS011;6943;52.368;9.966;2023-08-30T14:20:32;5.40;;;3.70;;
13743;SDS011;6943;52.368;9.966;2023-08-30T14:22:58;4.60;;;3.30;;
13743;SDS011;6943;52.368;9.966;2023-08-30T14:25:24;5.20;;;3.43;;
13743;SDS011;6943;52.368;9.966;2023-08-30T14:27:49;6.00;;;3.70;;
13743;SDS011;6943;52.368;9.966;2023-08-30T14:30:15;4.83;;;4.10;;
13743;SDS011;6943;52.368;9.966;2023-08-30T14:32:40;4.50;;;3.73;;
13743;SDS011;6943;52.368;9.966;2023-08-30T14:35:06;6.87;;;4.03;;
13743;SDS011;6943;52.368;9.966;2023-08-30T14:37:32;5.13;;;4.30;;
13743;SDS011;6943;52.368;9.966;2023-08-30T14:40:00;6.87;;;4.83;;
13743;SDS011;6943;52.368;9.966;2023-08-30T14:42:28;6.63;;;4.20;;
13743;SDS011;6943;52.368;9.966;2023-08-30T14:44:53;4.37;;;3.97;;
13743;SDS011;6943;52.368;9.966;2023-08-30T14:47:19;5.20;;;4.70;;
13743;SDS011;6943;52.368;9.966;2023-08-30T14:49:46;5.77;;;4.63;;
13743;SDS011;6943;52.368;9.966;2023-08-30T14:52:12;5.03;;;4.50;;
13743;SDS011;6943;52.368;9.966;2023-08-30T14:54:38;5.27;;;4.60;;
13743;SDS011;6943;52.368;9.966;2023-08-30T14:57:04;5.50;;;4.93;;
13743;SDS011;6943;52.368;9.966;2023-08-30T14:59:29;5.63;;;5.10;;
13743;SDS011;6943;52.368;9.966;2023-08-30T15:01:55;5.87;;;5.27;;
13743;SDS011;6943;52.368;9.966;2023-08-30T15:04:20;5.70;;;5.20;;
13743;SDS011;6943;52.368;9.966;2023-08-30T15:06:46;6.77;;;5.33;;